sensor_id;sensor_type;location;lat;lon;timestamp;pressure;altitude;pressure_sealevel;temperature;humidity
59158;BME280;44940;55.060;73.168;2022-07-29T00:00:09;99657.19;;;17.12;100.00
59158;BME280;44940;55.060;73.168;2022-07-29T00:02:36;99642.84;;;17.06;100.00
59158;BME280;44940;55.060;73.168;2022-07-29T00:05:04;99656.38;;;17.11;100.00
59158;BME280;44940;55.060;73.168;2022-07-29T00:07:31;99662.78;;;17.12;100.00
59158;BME280;44940;55.060;73.168;2022-07-29T00:09:58;99667.16;;;17.13;100.00
59158;BME280;44940;55.060;73.168;2022-07-29T00:12:25;99668.34;;;17.15;100.00
59158;BME280;44940;55.060;73.168;2022-07-29T00:14:54;99666.75;;;17.14;100.00
59158;BME280;44940;55.060;73.168;2022-07-29T00:17:22;99664.31;;;17.20;100.00
59158;BME280;44940;55.060;73.168;2022-07-29T00:19:49;99658.34;;;17.18;100.00
59158;BME280;44940;55.060;73.168;2022-07-29T00:22:16;99658.69;;;17.23;100.00
59158;BME280;44940;55.060;73.168;2022-07-29T00:24:43;99649.84;;;17.25;100.00
59158;BME280;44940;55.060;73.168;2022-07-29T00:27:10;99652.25;;;17.26;100.00
59158;BME280;44940;55.060;73.168;2022-07-29T00:29:37;99659.38;;;17.31;100.00
59158;BME280;44940;55.060;73.168;2022-07-29T00:32:06;99662.22;;;17.27;100.00
59158;BME280;44940;55.060;73.168;2022-07-29T00:34:33;99672.16;;;17.32;100.00
59158;BME280;44940;55.060;73.168;2022-07-29T00:37:19;99678.56;;;17.33;100.00
59158;BME280;44940;55.060;73.168;2022-07-29T00:39:46;99665.72;;;17.35;100.00
59158;BME280;44940;55.060;73.168;2022-07-29T00:42:13;99672.94;;;17.36;100.00
59158;BME280;44940;55.060;73.168;2022-07-29T00:44:41;99679.22;;;17.47;100.00
59158;BME280;44940;55.060;73.168;2022-07-29T00:47:10;99689.56;;;17.50;100.00
59158;BME280;44940;55.060;73.168;2022-07-29T00:49:38;99685.56;;;17.51;100.00
59158;BME280;44940;55.060;73.168;2022-07-29T00:52:07;99687.94;;;17.53;100.00
59158;BME280;44940;55.060;73.168;2022-07-29T00:54:35;99679.53;;;17.56;100.00
59158;BME280;44940;55.060;73.168;2022-07-29T00:57:02;99683.53;;;17.55;100.00
59158;BME280;44940;55.060;73.168;2022-07-29T00:59:30;99680.75;;;17.55;100.00
59158;BME280;44940;55.060;73.168;2022-07-29T01:01:57;99687.97;;;17.49;100.00
59158;BME280;44940;55.060;73.168;2022-07-29T01:04:26;99687.94;;;17.56;100.00
59158;BME280;44940;55.060;73.168;2022-07-29T01:06:54;99701.09;;;17.59;100.00
59158;BME280;44940;55.060;73.168;2022-07-29T01:09:21;99687.16;;;17.52;100.00
59158;BME280;44940;55.060;73.168;2022-07-29T01:11:50;99689.75;;;17.36;100.00
59158;BME280;44940;55.060;73.168;2022-07-29T01:14:17;99695.31;;;17.40;100.00
59158;BME280;44940;55.060;73.168;2022-07-29T01:16:51;99690.31;;;17.54;100.00
59158;BME280;44940;55.060;73.168;2022-07-29T01:19:42;99680.75;;;17.52;100.00
59158;BME280;44940;55.060;73.168;2022-07-29T01:22:24;99681.59;;;17.49;100.00
59158;BME280;44940;55.060;73.168;2022-07-29T01:25:17;99688.03;;;17.46;100.00
59158;BME280;44940;55.060;73.168;2022-07-29T01:28:01;99692.50;;;17.40;100.00
59158;BME280;44940;55.060;73.168;2022-07-29T01:30:38;99693.63;;;17.46;100.00
59158;BME280;44940;55.060;73.168;2022-07-29T01:33:10;99699.97;;;17.50;100.00
59158;BME280;44940;55.060;73.168;2022-07-29T01:35:59;99700.34;;;17.52;100.00
59158;BME280;44940;55.060;73.168;2022-07-29T01:38:28;99710.38;;;17.49;100.00
59158;BME280;44940;55.060;73.168;2022-07-29T01:41:03;99712.66;;;17.62;100.00
59158;BME280;44940;55.060;73.168;2022-07-29T01:43:40;99713.13;;;17.53;100.00
59158;BME280;44940;55.060;73.168;2022-07-29T01:46:14;99700.81;;;17.47;100.00
59158;BME280;44940;55.060;73.168;2022-07-29T01:48:45;99701.59;;;17.47;100.00
59158;BME280;44940;55.060;73.168;2022-07-29T01:51:16;99710.00;;;17.47;100.00
59158;BME280;44940;55.060;73.168;2022-07-29T01:53:47;99714.34;;;17.52;100.00
59158;BME280;44940;55.060;73.168;2022-07-29T01:56:18;99711.31;;;17.39;100.00
59158;BME280;44940;55.060;73.168;2022-07-29T01:58:47;99714.94;;;17.36;100.00
59158;BME280;44940;55.060;73.168;2022-07-29T02:01:18;99717.75;;;17.36;100.00
59158;BME280;44940;55.060;73.168;2022-07-29T02:03:48;99718.13;;;17.38;100.00
59158;BME280;44940;55.060;73.168;2022-07-29T02:06:19;99720.91;;;17.35;100.00
59158;BME280;44940;55.060;73.168;2022-07-29T02:08:49;99724.13;;;17.37;100.00
59158;BME280;44940;55.060;73.168;2022-07-29T02:11:17;99721.34;;;17.37;100.00
59158;BME280;44940;55.060;73.168;2022-07-29T02:13:44;99727.34;;;17.32;100.00
59158;BME280;44940;55.060;73.168;2022-07-29T02:16:14;99729.69;;;17.40;100.00
59158;BME280;44940;55.060;73.168;2022-07-29T02:18:45;99728.16;;;17.32;100.00
59158;BME280;44940;55.060;73.168;2022-07-29T02:21:15;99720.50;;;17.40;100.00
59158;BME280;44940;55.060;73.168;2022-07-29T02:23:46;99721.41;;;17.26;100.00
59158;BME280;44940;55.060;73.168;2022-07-29T02:26:15;99741.31;;;17.35;100.00
59158;BME280;44940;55.060;73.168;2022-07-29T02:28:44;99734.13;;;17.38;100.00
59158;BME280;44940;55.060;73.168;2022-07-29T02:31:12;99741.75;;;17.30;100.00
59158;BME280;44940;55.060;73.168;2022-07-29T02:33:40;99741.75;;;-144.94;100.00
59158;BME280;44940;55.060;73.168;2022-07-29T02:36:10;71117.31;;;-144.94;100.00
59158;BME280;44940;55.060;73.168;2022-07-29T02:38:38;99721.06;;;17.20;100.00
59158;BME280;44940;55.060;73.168;2022-07-29T02:41:26;71117.31;;;-144.94;100.00
59158;BME280;44940;55.060;73.168;2022-07-29T02:43:56;71117.31;;;-144.94;100.00
59158;BME280;44940;55.060;73.168;2022-07-29T02:46:29;71117.31;;;-144.94;100.00
59158;BME280;44940;55.060;73.168;2022-07-29T02:49:02;71117.31;;;-144.94;100.00
59158;BME280;44940;55.060;73.168;2022-07-29T02:51:40;71117.31;;;-144.94;100.00
59158;BME280;44940;55.060;73.168;2022-07-29T02:54:10;71117.31;;;-144.94;100.00
59158;BME280;44940;55.060;73.168;2022-07-29T02:56:39;71117.31;;;-144.94;100.00
59158;BME280;44940;55.060;73.168;2022-07-29T02:59:10;71117.31;;;-144.94;100.00
59158;BME280;44940;55.060;73.168;2022-07-29T03:01:41;71117.31;;;-144.94;100.00
59158;BME280;44940;55.060;73.168;2022-07-29T03:04:10;71117.31;;;-144.94;100.00
59158;BME280;44940;55.060;73.168;2022-07-29T03:06:40;71117.31;;;-144.94;100.00
59158;BME280;44940;55.060;73.168;2022-07-29T03:09:10;71117.31;;;-144.94;100.00
59158;BME280;44940;55.060;73.168;2022-07-29T03:11:40;71117.31;;;-144.94;100.00
59158;BME280;44940;55.060;73.168;2022-07-29T03:14:07;71117.31;;;-144.94;100.00
59158;BME280;44940;55.060;73.168;2022-07-29T03:16:35;71117.31;;;-144.94;100.00
59158;BME280;44940;55.060;73.168;2022-07-29T03:19:03;71117.31;;;-144.94;100.00
59158;BME280;44940;55.060;73.168;2022-07-29T03:21:31;71117.31;;;-144.94;100.00
59158;BME280;44940;55.060;73.168;2022-07-29T03:23:59;71117.31;;;-144.94;100.00
59158;BME280;44940;55.060;73.168;2022-07-29T03:26:26;71117.31;;;-144.94;100.00
59158;BME280;44940;55.060;73.168;2022-07-29T03:28:54;71117.31;;;-144.94;100.00
59158;BME280;44940;55.060;73.168;2022-07-29T03:31:22;71117.31;;;-144.94;100.00
59158;BME280;44940;55.060;73.168;2022-07-29T03:33:48;71117.31;;;-144.94;100.00
59158;BME280;44940;55.060;73.168;2022-07-29T03:36:16;71117.31;;;-144.94;100.00
59158;BME280;44940;55.060;73.168;2022-07-29T03:38:44;71117.31;;;-144.94;100.00
59158;BME280;44940;55.060;73.168;2022-07-29T03:41:14;71117.31;;;-144.94;100.00
59158;BME280;44940;55.060;73.168;2022-07-29T03:43:43;71117.31;;;-144.94;100.00
59158;BME280;44940;55.060;73.168;2022-07-29T03:46:11;71117.31;;;-144.94;100.00
59158;BME280;44940;55.060;73.168;2022-07-29T03:48:44;71117.31;;;-144.94;100.00
59158;BME280;44940;55.060;73.168;2022-07-29T03:51:13;71117.31;;;-144.94;100.00
59158;BME280;44940;55.060;73.168;2022-07-29T03:53:40;71117.31;;;-144.94;100.00
59158;BME280;44940;55.060;73.168;2022-07-29T03:56:10;71117.31;;;-144.94;100.00
59158;BME280;44940;55.060;73.168;2022-07-29T03:58:40;71117.31;;;-144.94;100.00
59158;BME280;44940;55.060;73.168;2022-07-29T04:01:08;71117.31;;;-144.94;100.00
59158;BME280;44940;55.060;73.168;2022-07-29T04:03:35;71117.31;;;-144.94;100.00
59158;BME280;44940;55.060;73.168;2022-07-29T04:06:04;71117.31;;;-144.94;100.00
59158;BME280;44940;55.060;73.168;2022-07-29T04:08:34;71117.31;;;-144.94;100.00
59158;BME280;44940;55.060;73.168;2022-07-29T04:11:02;71117.31;;;-144.94;100.00
59158;BME280;44940;55.060;73.168;2022-07-29T04:13:29;71117.31;;;-144.94;100.00
59158;BME280;44940;55.060;73.168;2022-07-29T04:15:58;71117.31;;;-144.94;100.00
59158;BME280;44940;55.060;73.168;2022-07-29T04:18:25;71117.31;;;-144.94;100.00
59158;BME280;44940;55.060;73.168;2022-07-29T04:20:52;71117.31;;;-144.94;100.00
59158;BME280;44940;55.060;73.168;2022-07-29T04:23:19;71117.31;;;-144.94;100.00
59158;BME280;44940;55.060;73.168;2022-07-29T04:25:47;71117.31;;;-144.94;100.00
59158;BME280;44940;55.060;73.168;2022-07-29T04:28:14;71117.31;;;-144.94;100.00
59158;BME280;44940;55.060;73.168;2022-07-29T04:30:41;71117.31;;;-144.94;100.00
59158;BME280;44940;55.060;73.168;2022-07-29T04:33:09;71117.31;;;-144.94;100.00
59158;BME280;44940;55.060;73.168;2022-07-29T04:35:37;71117.31;;;-144.94;100.00
59158;BME280;44940;55.060;73.168;2022-07-29T04:38:05;71117.31;;;-144.94;100.00
59158;BME280;44940;55.060;73.168;2022-07-29T04:40:33;71117.31;;;-144.94;100.00
59158;BME280;44940;55.060;73.168;2022-07-29T04:43:00;71117.31;;;-144.94;100.00
59158;BME280;44940;55.060;73.168;2022-07-29T04:45:28;71117.31;;;-144.94;100.00
59158;BME280;44940;55.060;73.168;2022-07-29T04:47:55;71117.31;;;-144.94;100.00
59158;BME280;44940;55.060;73.168;2022-07-29T04:50:24;99721.06;;;17.20;100.00
59158;BME280;44940;55.060;73.168;2022-07-29T04:52:51;99687.88;;;17.60;100.00
59158;BME280;44940;55.060;73.168;2022-07-29T04:55:18;99694.53;;;17.77;100.00
59158;BME280;44940;55.060;73.168;2022-07-29T04:57:45;99692.31;;;17.95;100.00
59158;BME280;44940;55.060;73.168;2022-07-29T05:00:12;99692.88;;;18.13;100.00
59158;BME280;44940;55.060;73.168;2022-07-29T05:02:40;99701.88;;;18.28;100.00
59158;BME280;44940;55.060;73.168;2022-07-29T05:05:07;99700.22;;;18.31;100.00
59158;BME280;44940;55.060;73.168;2022-07-29T05:07:36;99698.19;;;18.35;100.00
59158;BME280;44940;55.060;73.168;2022-07-29T05:10:03;99696.50;;;18.41;100.00
59158;BME280;44940;55.060;73.168;2022-07-29T05:12:30;99709.19;;;18.49;100.00
59158;BME280;44940;55.060;73.168;2022-07-29T05:14:57;99715.56;;;18.53;100.00
59158;BME280;44940;55.060;73.168;2022-07-29T05:17:24;99708.22;;;18.63;100.00
59158;BME280;44940;55.060;73.168;2022-07-29T05:19:53;71117.31;;;-144.94;100.00
59158;BME280;44940;55.060;73.168;2022-07-29T05:22:20;71117.31;;;-144.94;100.00
59158;BME280;44940;55.060;73.168;2022-07-29T05:24:49;71117.31;;;-144.94;100.00
59158;BME280;44940;55.060;73.168;2022-07-29T05:27:16;71117.31;;;-144.94;100.00
59158;BME280;44940;55.060;73.168;2022-07-29T05:29:43;71117.31;;;-144.94;100.00
59158;BME280;44940;55.060;73.168;2022-07-29T05:32:11;99718.44;;;19.00;100.00
59158;BME280;44940;55.060;73.168;2022-07-29T05:34:38;99726.28;;;19.12;100.00
59158;BME280;44940;55.060;73.168;2022-07-29T05:37:05;99729.09;;;19.12;100.00
59158;BME280;44940;55.060;73.168;2022-07-29T05:39:32;99718.88;;;19.22;100.00
59158;BME280;44940;55.060;73.168;2022-07-29T05:42:00;99728.00;;;19.29;100.00
59158;BME280;44940;55.060;73.168;2022-07-29T05:44:27;99725.53;;;19.31;100.00
59158;BME280;44940;55.060;73.168;2022-07-29T05:46:55;99735.19;;;19.30;100.00
59158;BME280;44940;55.060;73.168;2022-07-29T05:49:21;99730.31;;;19.34;100.00
59158;BME280;44940;55.060;73.168;2022-07-29T05:51:48;71117.31;;;-144.94;100.00
59158;BME280;44940;55.060;73.168;2022-07-29T05:54:15;71117.31;;;-144.94;100.00
59158;BME280;44940;55.060;73.168;2022-07-29T05:56:44;99736.34;;;19.56;100.00
59158;BME280;44940;55.060;73.168;2022-07-29T05:59:13;99745.94;;;19.59;100.00
59158;BME280;44940;55.060;73.168;2022-07-29T06:01:40;99740.41;;;19.75;100.00
59158;BME280;44940;55.060;73.168;2022-07-29T06:04:08;99739.84;;;19.84;100.00
59158;BME280;44940;55.060;73.168;2022-07-29T06:06:35;99743.84;;;19.86;100.00
59158;BME280;44940;55.060;73.168;2022-07-29T06:09:02;99745.63;;;19.96;100.00
59158;BME280;44940;55.060;73.168;2022-07-29T06:11:29;99745.78;;;20.09;100.00
59158;BME280;44940;55.060;73.168;2022-07-29T06:13:56;99749.56;;;20.19;100.00
59158;BME280;44940;55.060;73.168;2022-07-29T06:16:25;99751.94;;;20.20;100.00
59158;BME280;44940;55.060;73.168;2022-07-29T06:18:52;99755.78;;;20.30;100.00
59158;BME280;44940;55.060;73.168;2022-07-29T06:21:19;99760.69;;;20.26;100.00
59158;BME280;44940;55.060;73.168;2022-07-29T06:23:46;99756.41;;;20.38;100.00
59158;BME280;44940;55.060;73.168;2022-07-29T06:26:13;99757.56;;;20.40;100.00
59158;BME280;44940;55.060;73.168;2022-07-29T06:28:40;99763.56;;;20.42;100.00
59158;BME280;44940;55.060;73.168;2022-07-29T06:31:07;99755.56;;;20.41;100.00
59158;BME280;44940;55.060;73.168;2022-07-29T06:33:35;99763.97;;;20.60;100.00
59158;BME280;44940;55.060;73.168;2022-07-29T06:36:04;99751.94;;;20.60;100.00
59158;BME280;44940;55.060;73.168;2022-07-29T06:38:31;99757.13;;;20.61;100.00
59158;BME280;44940;55.060;73.168;2022-07-29T06:40:59;99757.16;;;20.78;100.00
59158;BME280;44940;55.060;73.168;2022-07-29T06:43:26;99755.41;;;21.00;100.00
59158;BME280;44940;55.060;73.168;2022-07-29T06:45:53;99754.72;;;21.12;100.00
59158;BME280;44940;55.060;73.168;2022-07-29T06:48:20;99753.19;;;21.28;100.00
59158;BME280;44940;55.060;73.168;2022-07-29T06:50:49;99757.66;;;21.41;100.00
59158;BME280;44940;55.060;73.168;2022-07-29T06:53:16;99752.88;;;21.55;100.00
59158;BME280;44940;55.060;73.168;2022-07-29T06:55:43;99742.03;;;21.69;100.00
59158;BME280;44940;55.060;73.168;2022-07-29T06:58:10;99744.81;;;21.86;100.00
59158;BME280;44940;55.060;73.168;2022-07-29T07:00:37;99744.50;;;21.96;100.00
59158;BME280;44940;55.060;73.168;2022-07-29T07:03:04;99749.75;;;22.10;100.00
59158;BME280;44940;55.060;73.168;2022-07-29T07:05:31;99749.94;;;22.32;100.00
59158;BME280;44940;55.060;73.168;2022-07-29T07:08:00;99750.00;;;22.58;100.00
59158;BME280;44940;55.060;73.168;2022-07-29T07:10:27;99757.09;;;22.62;100.00
59158;BME280;44940;55.060;73.168;2022-07-29T07:12:54;99752.91;;;22.54;100.00
59158;BME280;44940;55.060;73.168;2022-07-29T07:15:21;99743.44;;;22.61;100.00
59158;BME280;44940;55.060;73.168;2022-07-29T07:17:48;99746.38;;;22.70;100.00
59158;BME280;44940;55.060;73.168;2022-07-29T07:20:18;99747.19;;;22.83;100.00
59158;BME280;44940;55.060;73.168;2022-07-29T07:22:46;99746.50;;;22.92;100.00
59158;BME280;44940;55.060;73.168;2022-07-29T07:25:14;99740.84;;;22.92;100.00
59158;BME280;44940;55.060;73.168;2022-07-29T07:27:41;99746.94;;;22.78;100.00
59158;BME280;44940;55.060;73.168;2022-07-29T07:30:09;99748.28;;;22.73;100.00
59158;BME280;44940;55.060;73.168;2022-07-29T07:32:36;99759.38;;;23.06;100.00
59158;BME280;44940;55.060;73.168;2022-07-29T07:35:04;99742.69;;;22.98;100.00
59158;BME280;44940;55.060;73.168;2022-07-29T07:37:31;99739.69;;;23.27;100.00
59158;BME280;44940;55.060;73.168;2022-07-29T07:39:58;99738.75;;;23.43;100.00
59158;BME280;44940;55.060;73.168;2022-07-29T07:42:27;99736.91;;;23.49;100.00
59158;BME280;44940;55.060;73.168;2022-07-29T07:44:54;99740.88;;;23.52;100.00
59158;BME280;44940;55.060;73.168;2022-07-29T07:47:21;99740.88;;;23.52;100.00
59158;BME280;44940;55.060;73.168;2022-07-29T07:49:50;99738.97;;;23.49;100.00
59158;BME280;44940;55.060;73.168;2022-07-29T07:52:19;99739.88;;;23.46;100.00
59158;BME280;44940;55.060;73.168;2022-07-29T07:54:46;99744.28;;;23.59;100.00
59158;BME280;44940;55.060;73.168;2022-07-29T07:57:14;99750.72;;;23.60;100.00
59158;BME280;44940;55.060;73.168;2022-07-29T07:59:43;99744.59;;;23.74;100.00
59158;BME280;44940;55.060;73.168;2022-07-29T08:02:10;99739.38;;;23.73;100.00
59158;BME280;44940;55.060;73.168;2022-07-29T08:04:37;99742.91;;;23.64;100.00
59158;BME280;44940;55.060;73.168;2022-07-29T08:07:07;99735.31;;;23.74;100.00
59158;BME280;44940;55.060;73.168;2022-07-29T08:09:35;99734.59;;;24.04;100.00
59158;BME280;44940;55.060;73.168;2022-07-29T08:12:03;99733.56;;;24.11;100.00
59158;BME280;44940;55.060;73.168;2022-07-29T08:14:32;99732.22;;;24.25;100.00
59158;BME280;44940;55.060;73.168;2022-07-29T08:17:01;99730.59;;;24.14;100.00
59158;BME280;44940;55.060;73.168;2022-07-29T08:19:28;99729.72;;;24.05;100.00
59158;BME280;44940;55.060;73.168;2022-07-29T08:21:55;99725.06;;;24.11;100.00
59158;BME280;44940;55.060;73.168;2022-07-29T08:24:22;99734.06;;;24.18;100.00
59158;BME280;44940;55.060;73.168;2022-07-29T08:27:07;99719.84;;;24.09;100.00
59158;BME280;44940;55.060;73.168;2022-07-29T08:29:35;99735.03;;;24.25;100.00
59158;BME280;44940;55.060;73.168;2022-07-29T08:32:04;99725.63;;;24.28;100.00
59158;BME280;44940;55.060;73.168;2022-07-29T08:34:31;99722.84;;;24.59;100.00
59158;BME280;44940;55.060;73.168;2022-07-29T08:36:59;99717.09;;;24.80;100.00
59158;BME280;44940;55.060;73.168;2022-07-29T08:39:26;99722.50;;;24.88;100.00
59158;BME280;44940;55.060;73.168;2022-07-29T08:41:53;99724.50;;;24.78;100.00
59158;BME280;44940;55.060;73.168;2022-07-29T08:44:21;99716.63;;;24.73;100.00
59158;BME280;44940;55.060;73.168;2022-07-29T08:46:49;99728.31;;;24.53;99.87
59158;BME280;44940;55.060;73.168;2022-07-29T08:49:17;99720.09;;;24.46;100.00
59158;BME280;44940;55.060;73.168;2022-07-29T08:51:45;99728.34;;;24.62;100.00
59158;BME280;44940;55.060;73.168;2022-07-29T08:54:16;99712.69;;;24.79;94.76
59158;BME280;44940;55.060;73.168;2022-07-29T08:56:44;99727.41;;;24.96;100.00
59158;BME280;44940;55.060;73.168;2022-07-29T08:59:12;99716.16;;;25.24;100.00
59158;BME280;44940;55.060;73.168;2022-07-29T09:01:40;99714.09;;;25.24;100.00
59158;BME280;44940;55.060;73.168;2022-07-29T09:04:11;99712.06;;;25.25;97.49
59158;BME280;44940;55.060;73.168;2022-07-29T09:06:43;99715.94;;;25.00;94.37
59158;BME280;44940;55.060;73.168;2022-07-29T09:09:11;99708.97;;;24.92;98.27
59158;BME280;44940;55.060;73.168;2022-07-29T09:11:38;99732.69;;;24.76;98.12
59158;BME280;44940;55.060;73.168;2022-07-29T09:14:06;99719.69;;;24.97;98.07
59158;BME280;44940;55.060;73.168;2022-07-29T09:16:48;99724.34;;;25.13;93.81
59158;BME280;44940;55.060;73.168;2022-07-29T09:19:27;99722.31;;;25.31;95.38
59158;BME280;44940;55.060;73.168;2022-07-29T09:21:57;99716.50;;;25.35;94.06
59158;BME280;44940;55.060;73.168;2022-07-29T09:24:27;99726.09;;;25.28;94.10
59158;BME280;44940;55.060;73.168;2022-07-29T09:27:07;99728.56;;;25.08;93.76
59158;BME280;44940;55.060;73.168;2022-07-29T09:29:35;99725.13;;;24.82;94.47
59158;BME280;44940;55.060;73.168;2022-07-29T09:32:07;99728.47;;;24.49;96.25
59158;BME280;44940;55.060;73.168;2022-07-29T09:34:35;99719.19;;;24.49;98.65
59158;BME280;44940;55.060;73.168;2022-07-29T09:37:04;99713.28;;;24.34;99.24
59158;BME280;44940;55.060;73.168;2022-07-29T09:39:33;99704.47;;;24.32;100.00
59158;BME280;44940;55.060;73.168;2022-07-29T09:42:02;99719.72;;;24.35;97.05
59158;BME280;44940;55.060;73.168;2022-07-29T09:44:41;99709.69;;;24.43;95.68
59158;BME280;44940;55.060;73.168;2022-07-29T09:47:09;99706.41;;;24.75;98.89
59158;BME280;44940;55.060;73.168;2022-07-29T09:49:50;99708.03;;;24.95;95.64
59158;BME280;44940;55.060;73.168;2022-07-29T09:52:19;99712.84;;;25.07;92.01
59158;BME280;44940;55.060;73.168;2022-07-29T09:54:46;99711.75;;;25.23;95.36
59158;BME280;44940;55.060;73.168;2022-07-29T09:57:24;99719.47;;;25.22;96.42
59158;BME280;44940;55.060;73.168;2022-07-29T09:59:59;99718.81;;;25.09;95.52
59158;BME280;44940;55.060;73.168;2022-07-29T10:02:30;99723.72;;;24.87;95.77
59158;BME280;44940;55.060;73.168;2022-07-29T10:04:58;99727.88;;;24.95;94.83
59158;BME280;44940;55.060;73.168;2022-07-29T10:07:27;99719.84;;;24.93;94.46
59158;BME280;44940;55.060;73.168;2022-07-29T10:10:09;99706.56;;;24.81;95.58
59158;BME280;44940;55.060;73.168;2022-07-29T10:12:48;99710.56;;;24.93;97.20
59158;BME280;44940;55.060;73.168;2022-07-29T10:15:16;99721.25;;;24.89;96.98
59158;BME280;44940;55.060;73.168;2022-07-29T10:17:43;99722.25;;;25.04;95.53
59158;BME280;44940;55.060;73.168;2022-07-29T10:20:11;99726.50;;;24.99;93.81
59158;BME280;44940;55.060;73.168;2022-07-29T10:22:40;99731.44;;;25.17;93.10
59158;BME280;44940;55.060;73.168;2022-07-29T10:25:08;99735.19;;;25.14;91.59
59158;BME280;44940;55.060;73.168;2022-07-29T10:27:36;99728.94;;;25.37;90.84
59158;BME280;44940;55.060;73.168;2022-07-29T10:30:04;99734.31;;;25.35;92.78
59158;BME280;44940;55.060;73.168;2022-07-29T10:32:39;99730.19;;;25.36;92.90
59158;BME280;44940;55.060;73.168;2022-07-29T10:35:21;99725.13;;;25.22;93.59
59158;BME280;44940;55.060;73.168;2022-07-29T10:38:06;99732.56;;;24.89;94.35
59158;BME280;44940;55.060;73.168;2022-07-29T10:40:42;99722.19;;;24.55;97.60
59158;BME280;44940;55.060;73.168;2022-07-29T10:43:33;99717.22;;;24.37;98.41
59158;BME280;44940;55.060;73.168;2022-07-29T10:46:03;99725.41;;;24.35;97.63
59158;BME280;44940;55.060;73.168;2022-07-29T10:48:30;99719.31;;;24.45;98.66
59158;BME280;44940;55.060;73.168;2022-07-29T10:50:59;99719.50;;;24.51;97.33
59158;BME280;44940;55.060;73.168;2022-07-29T10:53:49;99727.41;;;24.65;96.58
59158;BME280;44940;55.060;73.168;2022-07-29T10:56:27;99716.75;;;24.69;94.85
59158;BME280;44940;55.060;73.168;2022-07-29T10:59:23;99728.44;;;24.80;95.40
59158;BME280;44940;55.060;73.168;2022-07-29T11:01:51;99732.09;;;24.90;94.94
59158;BME280;44940;55.060;73.168;2022-07-29T11:04:59;99724.88;;;24.89;96.61
59158;BME280;44940;55.060;73.168;2022-07-29T11:07:28;99731.31;;;24.90;93.91
59158;BME280;44940;55.060;73.168;2022-07-29T11:10:23;99732.34;;;24.74;93.79
59158;BME280;44940;55.060;73.168;2022-07-29T11:12:50;99741.91;;;24.67;94.19
59158;BME280;44940;55.060;73.168;2022-07-29T11:15:19;99721.13;;;24.61;94.57
59158;BME280;44940;55.060;73.168;2022-07-29T11:18:04;99730.06;;;24.60;95.39
59158;BME280;44940;55.060;73.168;2022-07-29T11:20:36;99721.09;;;24.52;94.80
59158;BME280;44940;55.060;73.168;2022-07-29T11:23:18;99729.00;;;24.66;95.90
59158;BME280;44940;55.060;73.168;2022-07-29T11:26:13;99716.63;;;24.82;96.19
59158;BME280;44940;55.060;73.168;2022-07-29T11:28:51;99728.16;;;24.88;94.71
59158;BME280;44940;55.060;73.168;2022-07-29T11:31:32;99720.25;;;24.73;93.42
59158;BME280;44940;55.060;73.168;2022-07-29T11:34:18;99741.41;;;24.60;94.11
59158;BME280;44940;55.060;73.168;2022-07-29T11:37:14;99739.78;;;24.49;94.58
59158;BME280;44940;55.060;73.168;2022-07-29T11:39:42;99742.66;;;24.59;94.28
59158;BME280;44940;55.060;73.168;2022-07-29T11:42:39;99745.31;;;24.53;95.11
59158;BME280;44940;55.060;73.168;2022-07-29T11:45:09;99739.03;;;24.58;95.05
59158;BME280;44940;55.060;73.168;2022-07-29T11:47:38;99741.72;;;24.62;94.10
59158;BME280;44940;55.060;73.168;2022-07-29T11:50:07;99741.63;;;24.74;93.73
59158;BME280;44940;55.060;73.168;2022-07-29T11:52:36;99735.34;;;24.70;92.83
59158;BME280;44940;55.060;73.168;2022-07-29T11:55:10;99728.88;;;24.70;92.27
59158;BME280;44940;55.060;73.168;2022-07-29T11:57:47;99734.47;;;24.61;91.00
59158;BME280;44940;55.060;73.168;2022-07-29T12:00:23;99734.84;;;24.41;90.95
59158;BME280;44940;55.060;73.168;2022-07-29T12:02:50;99742.69;;;24.37;92.40
59158;BME280;44940;55.060;73.168;2022-07-29T12:05:18;99731.38;;;24.37;91.78
59158;BME280;44940;55.060;73.168;2022-07-29T12:07:45;99741.94;;;24.45;92.44
59158;BME280;44940;55.060;73.168;2022-07-29T12:10:13;99730.28;;;24.34;91.48
59158;BME280;44940;55.060;73.168;2022-07-29T12:12:40;99748.34;;;24.15;90.04
59158;BME280;44940;55.060;73.168;2022-07-29T12:15:16;99760.13;;;24.13;92.24
59158;BME280;44940;55.060;73.168;2022-07-29T12:17:45;99756.50;;;24.13;92.15
59158;BME280;44940;55.060;73.168;2022-07-29T12:20:13;99763.28;;;24.15;92.92
59158;BME280;44940;55.060;73.168;2022-07-29T12:22:48;99758.28;;;24.19;93.08
59158;BME280;44940;55.060;73.168;2022-07-29T12:25:16;99767.31;;;24.49;91.73
59158;BME280;44940;55.060;73.168;2022-07-29T12:27:45;99769.44;;;24.36;91.82
59158;BME280;44940;55.060;73.168;2022-07-29T12:30:15;99768.44;;;24.30;88.27
59158;BME280;44940;55.060;73.168;2022-07-29T12:32:44;99787.81;;;24.18;88.92
59158;BME280;44940;55.060;73.168;2022-07-29T12:35:13;99789.09;;;24.17;88.50
59158;BME280;44940;55.060;73.168;2022-07-29T12:37:42;99787.63;;;24.13;89.67
59158;BME280;44940;55.060;73.168;2022-07-29T12:40:11;99788.66;;;24.06;89.06
59158;BME280;44940;55.060;73.168;2022-07-29T12:42:39;99793.88;;;24.08;87.67
59158;BME280;44940;55.060;73.168;2022-07-29T12:45:07;99804.66;;;24.00;87.70
59158;BME280;44940;55.060;73.168;2022-07-29T12:47:51;99799.47;;;23.99;88.04
59158;BME280;44940;55.060;73.168;2022-07-29T12:50:19;99798.13;;;23.90;88.29
59158;BME280;44940;55.060;73.168;2022-07-29T12:52:46;99808.63;;;23.90;89.27